Terminal Aerodrome Forecast
Issued by NWS

Home | Current Version | Previous Version | Text Only | Print | Product List | Glossary On
Versions: 1 2 3 4 5 6 7 8 9 10 11 12 13 14 15 16 17 18 19 20 21 22 23 24 25 26 27 28 29 30 31 32 33 34 35 36 37 38
000
FTUS43 KGRB 210543
TAFRHI
TAF
KRHI 210543Z 2106/2206 VRB02KT 1 1/2SM BR SCT003
     FM210700 VRB03KT 2SM BR SCT250
      TEMPO 2108/2112 1/2SM FG BKN002
     FM211300 17006KT P6SM SCT015
     FM211800 16009KT P6SM FEW040 SCT150 PROB30 2120/2202 3SM -TSRA
      BKN040CB
     FM220200 09010KT 6SM -SHRA SCT025 OVC040
      TEMPO 2202/2206 2SM -TSRA BKN025CB=

USA.gov is the U.S. government's official web portal to all federal, state and local government web resources and services.